sensor_id;sensor_type;location;lat;lon;timestamp;pressure;altitude;pressure_sealevel;temperature;humidity
71666;BME280;59503;53.486;10.196;2023-11-19T00:00:10;101038.03;;;4.69;100.00
71666;BME280;59503;53.486;10.196;2023-11-19T00:02:38;101023.31;;;4.66;100.00
71666;BME280;59503;53.486;10.196;2023-11-19T00:05:04;101011.44;;;4.67;100.00
71666;BME280;59503;53.486;10.196;2023-11-19T00:07:30;101000.66;;;4.67;100.00
71666;BME280;59503;53.486;10.196;2023-11-19T00:09:55;100998.78;;;4.68;100.00
71666;BME280;59503;53.486;10.196;2023-11-19T00:12:21;100988.00;;;4.68;100.00
71666;BME280;59503;53.486;10.196;2023-11-19T00:14:47;100997.97;;;4.67;100.00
71666;BME280;59503;53.486;10.196;2023-11-19T00:17:13;100989.59;;;4.69;100.00
71666;BME280;59503;53.486;10.196;2023-11-19T00:19:38;100970.72;;;4.69;100.00
71666;BME280;59503;53.486;10.196;2023-11-19T00:22:04;100967.59;;;4.67;100.00
71666;BME280;59503;53.486;10.196;2023-11-19T00:24:30;100951.13;;;4.68;100.00
71666;BME280;59503;53.486;10.196;2023-11-19T00:26:56;100942.41;;;4.63;100.00
71666;BME280;59503;53.486;10.196;2023-11-19T00:29:21;100941.44;;;4.67;100.00
71666;BME280;59503;53.486;10.196;2023-11-19T00:31:47;100943.34;;;4.67;100.00
71666;BME280;59503;53.486;10.196;2023-11-19T00:34:13;100936.38;;;4.66;100.00
71666;BME280;59503;53.486;10.196;2023-11-19T00:36:38;100933.53;;;4.71;100.00
71666;BME280;59503;53.486;10.196;2023-11-19T00:39:04;100927.50;;;4.74;100.00
71666;BME280;59503;53.486;10.196;2023-11-19T00:41:30;100917.19;;;4.76;100.00
71666;BME280;59503;53.486;10.196;2023-11-19T00:43:56;100898.34;;;4.76;100.00
71666;BME280;59503;53.486;10.196;2023-11-19T00:46:21;100889.63;;;4.79;100.00
71666;BME280;59503;53.486;10.196;2023-11-19T00:48:48;100889.34;;;4.80;100.00
71666;BME280;59503;53.486;10.196;2023-11-19T00:51:14;100888.22;;;4.81;100.00
71666;BME280;59503;53.486;10.196;2023-11-19T00:53:39;100879.19;;;4.77;100.00
71666;BME280;59503;53.486;10.196;2023-11-19T00:56:05;100889.03;;;4.82;100.00
71666;BME280;59503;53.486;10.196;2023-11-19T00:58:30;100887.56;;;4.84;100.00
71666;BME280;59503;53.486;10.196;2023-11-19T01:00:57;100891.53;;;4.87;100.00
71666;BME280;59503;53.486;10.196;2023-11-19T01:03:22;100895.00;;;4.87;100.00
71666;BME280;59503;53.486;10.196;2023-11-19T01:05:48;100871.09;;;4.86;100.00
71666;BME280;59503;53.486;10.196;2023-11-19T01:08:13;100873.94;;;4.89;100.00
71666;BME280;59503;53.486;10.196;2023-11-19T01:10:39;100850.66;;;4.85;100.00
71666;BME280;59503;53.486;10.196;2023-11-19T01:13:05;100854.75;;;4.91;100.00
71666;BME280;59503;53.486;10.196;2023-11-19T01:15:33;100836.38;;;4.93;100.00
71666;BME280;59503;53.486;10.196;2023-11-19T01:17:59;100827.81;;;4.91;100.00
71666;BME280;59503;53.486;10.196;2023-11-19T01:20:27;100815.97;;;4.92;100.00
71666;BME280;59503;53.486;10.196;2023-11-19T01:22:52;100808.66;;;4.92;100.00
71666;BME280;59503;53.486;10.196;2023-11-19T01:25:18;100806.75;;;4.93;100.00
71666;BME280;59503;53.486;10.196;2023-11-19T01:27:43;100795.03;;;4.89;100.00
71666;BME280;59503;53.486;10.196;2023-11-19T01:30:09;100791.53;;;4.97;100.00
71666;BME280;59503;53.486;10.196;2023-11-19T01:32:38;100789.47;;;4.94;100.00
71666;BME280;59503;53.486;10.196;2023-11-19T01:35:04;100791.53;;;4.97;100.00
71666;BME280;59503;53.486;10.196;2023-11-19T01:37:29;100775.38;;;4.97;100.00
71666;BME280;59503;53.486;10.196;2023-11-19T01:39:56;100769.19;;;4.96;100.00
71666;BME280;59503;53.486;10.196;2023-11-19T01:42:22;100762.72;;;4.89;100.00
71666;BME280;59503;53.486;10.196;2023-11-19T01:45:00;100749.56;;;4.87;100.00
71666;BME280;59503;53.486;10.196;2023-11-19T01:47:30;100752.09;;;4.92;100.00
71666;BME280;59503;53.486;10.196;2023-11-19T01:49:56;100749.72;;;4.91;100.00
71666;BME280;59503;53.486;10.196;2023-11-19T01:52:22;100742.31;;;4.88;100.00
71666;BME280;59503;53.486;10.196;2023-11-19T01:54:48;100741.66;;;4.91;100.00
71666;BME280;59503;53.486;10.196;2023-11-19T01:57:14;100748.63;;;4.92;100.00
71666;BME280;59503;53.486;10.196;2023-11-19T01:59:40;100734.38;;;4.91;100.00
71666;BME280;59503;53.486;10.196;2023-11-19T02:02:07;100720.09;;;4.91;100.00
71666;BME280;59503;53.486;10.196;2023-11-19T02:04:32;100715.69;;;4.86;100.00
71666;BME280;59503;53.486;10.196;2023-11-19T02:06:59;100710.78;;;4.88;100.00
71666;BME280;59503;53.486;10.196;2023-11-19T02:09:25;100695.31;;;4.77;100.00
71666;BME280;59503;53.486;10.196;2023-11-19T02:11:52;100709.97;;;4.88;100.00
71666;BME280;59503;53.486;10.196;2023-11-19T02:14:25;100716.16;;;4.88;100.00
71666;BME280;59503;53.486;10.196;2023-11-19T02:16:51;100692.25;;;4.87;100.00
71666;BME280;59503;53.486;10.196;2023-11-19T02:19:20;100694.63;;;4.88;100.00
71666;BME280;59503;53.486;10.196;2023-11-19T02:21:45;100685.28;;;4.86;100.00
71666;BME280;59503;53.486;10.196;2023-11-19T02:24:13;100678.97;;;4.82;100.00
71666;BME280;59503;53.486;10.196;2023-11-19T02:29:12;100662.31;;;4.88;100.00
71666;BME280;59503;53.486;10.196;2023-11-19T02:31:38;100652.31;;;4.89;100.00
71666;BME280;59503;53.486;10.196;2023-11-19T02:34:03;100644.88;;;4.86;100.00
71666;BME280;59503;53.486;10.196;2023-11-19T02:36:29;100644.22;;;4.89;100.00
71666;BME280;59503;53.486;10.196;2023-11-19T02:38:54;100650.53;;;4.93;100.00
71666;BME280;59503;53.486;10.196;2023-11-19T02:41:20;100645.63;;;4.95;100.00
71666;BME280;59503;53.486;10.196;2023-11-19T02:43:45;100643.72;;;4.95;100.00
71666;BME280;59503;53.486;10.196;2023-11-19T02:46:13;100624.41;;;4.93;100.00
71666;BME280;59503;53.486;10.196;2023-11-19T02:48:39;100609.22;;;4.89;100.00
71666;BME280;59503;53.486;10.196;2023-11-19T02:51:05;100612.00;;;5.01;100.00
71666;BME280;59503;53.486;10.196;2023-11-19T02:53:34;100610.75;;;4.98;100.00
71666;BME280;59503;53.486;10.196;2023-11-19T02:56:00;100589.88;;;4.95;100.00
71666;BME280;59503;53.486;10.196;2023-11-19T02:58:31;100579.19;;;4.99;100.00
71666;BME280;59503;53.486;10.196;2023-11-19T03:00:57;100594.72;;;5.02;100.00
71666;BME280;59503;53.486;10.196;2023-11-19T03:03:27;100592.94;;;5.06;100.00
71666;BME280;59503;53.486;10.196;2023-11-19T03:06:07;100576.63;;;5.02;100.00
71666;BME280;59503;53.486;10.196;2023-11-19T03:08:35;100567.25;;;5.08;100.00
71666;BME280;59503;53.486;10.196;2023-11-19T03:11:01;100561.94;;;5.00;100.00
71666;BME280;59503;53.486;10.196;2023-11-19T03:13:27;100561.47;;;4.98;100.00
71666;BME280;59503;53.486;10.196;2023-11-19T03:15:52;100574.09;;;5.06;100.00
71666;BME280;59503;53.486;10.196;2023-11-19T03:18:19;100570.28;;;5.07;100.00
71666;BME280;59503;53.486;10.196;2023-11-19T03:20:46;100567.59;;;5.07;100.00
71666;BME280;59503;53.486;10.196;2023-11-19T03:23:12;100554.56;;;5.09;100.00
71666;BME280;59503;53.486;10.196;2023-11-19T03:25:37;100546.81;;;5.07;100.00
71666;BME280;59503;53.486;10.196;2023-11-19T03:28:03;100519.31;;;5.02;100.00
71666;BME280;59503;53.486;10.196;2023-11-19T03:30:30;100527.19;;;5.07;100.00
71666;BME280;59503;53.486;10.196;2023-11-19T03:32:56;100523.84;;;5.10;100.00
71666;BME280;59503;53.486;10.196;2023-11-19T03:35:22;100521.25;;;5.14;100.00
71666;BME280;59503;53.486;10.196;2023-11-19T03:37:48;100505.44;;;5.12;100.00
71666;BME280;59503;53.486;10.196;2023-11-19T03:40:13;100489.72;;;5.14;100.00
71666;BME280;59503;53.486;10.196;2023-11-19T03:42:40;100495.56;;;5.16;100.00
71666;BME280;59503;53.486;10.196;2023-11-19T03:45:08;100489.41;;;5.16;100.00
71666;BME280;59503;53.486;10.196;2023-11-19T03:47:35;100488.94;;;5.14;100.00
71666;BME280;59503;53.486;10.196;2023-11-19T03:50:01;100486.84;;;5.19;100.00
71666;BME280;59503;53.486;10.196;2023-11-19T03:52:27;100488.84;;;5.22;100.00
71666;BME280;59503;53.486;10.196;2023-11-19T03:54:53;100487.06;;;5.26;100.00
71666;BME280;59503;53.486;10.196;2023-11-19T03:57:20;100490.34;;;5.32;100.00
71666;BME280;59503;53.486;10.196;2023-11-19T03:59:45;100485.75;;;5.32;100.00
71666;BME280;59503;53.486;10.196;2023-11-19T04:02:11;100480.91;;;5.38;100.00
71666;BME280;59503;53.486;10.196;2023-11-19T04:04:37;100482.16;;;5.40;100.00
71666;BME280;59503;53.486;10.196;2023-11-19T04:07:04;100466.00;;;5.40;100.00
71666;BME280;59503;53.486;10.196;2023-11-19T04:09:30;100484.31;;;5.47;100.00
71666;BME280;59503;53.486;10.196;2023-11-19T04:11:58;100482.88;;;5.49;100.00
71666;BME280;59503;53.486;10.196;2023-11-19T04:14:24;100476.81;;;5.52;100.00
71666;BME280;59503;53.486;10.196;2023-11-19T04:16:50;100464.91;;;5.53;100.00
71666;BME280;59503;53.486;10.196;2023-11-19T04:19:16;100461.84;;;5.55;100.00
71666;BME280;59503;53.486;10.196;2023-11-19T04:21:42;100447.72;;;5.58;100.00
71666;BME280;59503;53.486;10.196;2023-11-19T04:24:11;100445.81;;;5.58;100.00
71666;BME280;59503;53.486;10.196;2023-11-19T04:26:44;100452.09;;;5.62;100.00
71666;BME280;59503;53.486;10.196;2023-11-19T04:29:14;100449.41;;;5.62;100.00
71666;BME280;59503;53.486;10.196;2023-11-19T04:31:43;100450.63;;;5.65;100.00
71666;BME280;59503;53.486;10.196;2023-11-19T04:34:10;100435.94;;;5.62;100.00
71666;BME280;59503;53.486;10.196;2023-11-19T04:36:36;100438.41;;;5.67;100.00
71666;BME280;59503;53.486;10.196;2023-11-19T04:39:03;100433.81;;;5.68;100.00
71666;BME280;59503;53.486;10.196;2023-11-19T04:41:32;100415.94;;;5.63;100.00
71666;BME280;59503;53.486;10.196;2023-11-19T04:43:58;100426.50;;;5.68;100.00
71666;BME280;59503;53.486;10.196;2023-11-19T04:46:23;100413.81;;;5.69;100.00
71666;BME280;59503;53.486;10.196;2023-11-19T04:48:49;100430.97;;;5.76;100.00
71666;BME280;59503;53.486;10.196;2023-11-19T04:51:15;100425.59;;;5.76;100.00
71666;BME280;59503;53.486;10.196;2023-11-19T04:53:42;100416.84;;;5.79;100.00
71666;BME280;59503;53.486;10.196;2023-11-19T04:56:11;100433.44;;;5.81;100.00
71666;BME280;59503;53.486;10.196;2023-11-19T04:58:37;100423.59;;;5.85;100.00
71666;BME280;59503;53.486;10.196;2023-11-19T05:01:03;100416.75;;;5.88;100.00
71666;BME280;59503;53.486;10.196;2023-11-19T05:03:30;100413.72;;;5.89;100.00
71666;BME280;59503;53.486;10.196;2023-11-19T05:05:56;100412.59;;;5.90;100.00
71666;BME280;59503;53.486;10.196;2023-11-19T05:08:22;100411.38;;;5.88;100.00
71666;BME280;59503;53.486;10.196;2023-11-19T05:10:47;100406.84;;;5.92;100.00
71666;BME280;59503;53.486;10.196;2023-11-19T05:13:13;100408.44;;;5.93;100.00
71666;BME280;59503;53.486;10.196;2023-11-19T05:15:38;100410.56;;;5.99;100.00
71666;BME280;59503;53.486;10.196;2023-11-19T05:18:04;100405.41;;;6.06;100.00
71666;BME280;59503;53.486;10.196;2023-11-19T05:20:30;100393.22;;;6.12;100.00
71666;BME280;59503;53.486;10.196;2023-11-19T05:22:55;100397.31;;;6.06;100.00
71666;BME280;59503;53.486;10.196;2023-11-19T05:25:21;100387.25;;;6.19;100.00
71666;BME280;59503;53.486;10.196;2023-11-19T05:27:46;100396.38;;;6.26;100.00
71666;BME280;59503;53.486;10.196;2023-11-19T05:30:12;100380.41;;;6.21;100.00
71666;BME280;59503;53.486;10.196;2023-11-19T05:32:37;100368.56;;;6.26;100.00
71666;BME280;59503;53.486;10.196;2023-11-19T05:35:02;100377.88;;;6.28;100.00
71666;BME280;59503;53.486;10.196;2023-11-19T05:37:28;100379.69;;;6.37;100.00
71666;BME280;59503;53.486;10.196;2023-11-19T05:39:54;100374.22;;;6.49;100.00
71666;BME280;59503;53.486;10.196;2023-11-19T05:42:19;100374.63;;;6.63;100.00
71666;BME280;59503;53.486;10.196;2023-11-19T05:44:45;100378.66;;;6.69;100.00
71666;BME280;59503;53.486;10.196;2023-11-19T05:47:11;100385.44;;;6.63;100.00
71666;BME280;59503;53.486;10.196;2023-11-19T05:49:37;100379.63;;;6.76;100.00
71666;BME280;59503;53.486;10.196;2023-11-19T05:52:03;100369.78;;;6.84;100.00
71666;BME280;59503;53.486;10.196;2023-11-19T05:54:29;100365.81;;;6.93;100.00
71666;BME280;59503;53.486;10.196;2023-11-19T05:56:54;100367.03;;;6.96;100.00
71666;BME280;59503;53.486;10.196;2023-11-19T05:59:20;100361.81;;;7.03;100.00
71666;BME280;59503;53.486;10.196;2023-11-19T06:01:48;100364.28;;;7.08;100.00
71666;BME280;59503;53.486;10.196;2023-11-19T06:04:13;100367.84;;;7.12;100.00
71666;BME280;59503;53.486;10.196;2023-11-19T06:06:39;100370.75;;;7.19;100.00
71666;BME280;59503;53.486;10.196;2023-11-19T06:09:06;100375.91;;;7.24;100.00
71666;BME280;59503;53.486;10.196;2023-11-19T06:11:33;100372.22;;;7.32;100.00
71666;BME280;59503;53.486;10.196;2023-11-19T06:13:59;100364.66;;;7.37;100.00
71666;BME280;59503;53.486;10.196;2023-11-19T06:16:24;100372.81;;;7.41;100.00
71666;BME280;59503;53.486;10.196;2023-11-19T06:18:50;100377.22;;;7.45;100.00
71666;BME280;59503;53.486;10.196;2023-11-19T06:21:15;100363.41;;;7.50;100.00
71666;BME280;59503;53.486;10.196;2023-11-19T06:23:41;100362.63;;;7.50;100.00
71666;BME280;59503;53.486;10.196;2023-11-19T06:26:08;100364.34;;;7.58;100.00
71666;BME280;59503;53.486;10.196;2023-11-19T06:28:34;100349.81;;;7.63;100.00
71666;BME280;59503;53.486;10.196;2023-11-19T06:31:01;100360.75;;;7.70;100.00
71666;BME280;59503;53.486;10.196;2023-11-19T06:33:27;100365.50;;;7.73;100.00
71666;BME280;59503;53.486;10.196;2023-11-19T06:35:52;100368.69;;;7.78;100.00
71666;BME280;59503;53.486;10.196;2023-11-19T06:38:18;100373.47;;;7.85;100.00
71666;BME280;59503;53.486;10.196;2023-11-19T06:40:43;100383.00;;;7.94;100.00
71666;BME280;59503;53.486;10.196;2023-11-19T06:43:09;100375.22;;;7.93;100.00
71666;BME280;59503;53.486;10.196;2023-11-19T06:45:34;100375.03;;;8.01;100.00
71666;BME280;59503;53.486;10.196;2023-11-19T06:48:02;100380.31;;;8.13;100.00
71666;BME280;59503;53.486;10.196;2023-11-19T06:50:29;100380.22;;;8.25;100.00
71666;BME280;59503;53.486;10.196;2023-11-19T06:52:54;100377.03;;;8.39;100.00
71666;BME280;59503;53.486;10.196;2023-11-19T06:55:20;100370.25;;;8.48;100.00
71666;BME280;59503;53.486;10.196;2023-11-19T06:57:45;100380.66;;;8.65;100.00
71666;BME280;59503;53.486;10.196;2023-11-19T07:00:11;100373.31;;;8.85;100.00
71666;BME280;59503;53.486;10.196;2023-11-19T07:02:37;100376.91;;;9.12;100.00
71666;BME280;59503;53.486;10.196;2023-11-19T07:05:02;100378.66;;;9.23;100.00
71666;BME280;59503;53.486;10.196;2023-11-19T07:07:31;100382.50;;;9.45;100.00
71666;BME280;59503;53.486;10.196;2023-11-19T07:10:00;100383.19;;;9.61;100.00
71666;BME280;59503;53.486;10.196;2023-11-19T07:12:25;100392.56;;;9.67;100.00
71666;BME280;59503;53.486;10.196;2023-11-19T07:14:53;100390.78;;;9.78;100.00
71666;BME280;59503;53.486;10.196;2023-11-19T07:17:20;100386.00;;;9.94;100.00
71666;BME280;59503;53.486;10.196;2023-11-19T07:19:46;100383.34;;;9.97;100.00
71666;BME280;59503;53.486;10.196;2023-11-19T07:22:12;100380.25;;;9.99;100.00
71666;BME280;59503;53.486;10.196;2023-11-19T07:24:40;100379.53;;;10.02;100.00
71666;BME280;59503;53.486;10.196;2023-11-19T07:27:07;100375.41;;;10.12;100.00
71666;BME280;59503;53.486;10.196;2023-11-19T07:29:34;100369.28;;;10.18;100.00
71666;BME280;59503;53.486;10.196;2023-11-19T07:32:00;100373.28;;;10.24;100.00
71666;BME280;59503;53.486;10.196;2023-11-19T07:34:27;100380.41;;;10.36;100.00
71666;BME280;59503;53.486;10.196;2023-11-19T07:36:54;100379.97;;;10.34;100.00
71666;BME280;59503;53.486;10.196;2023-11-19T07:39:22;100383.50;;;10.34;100.00
71666;BME280;59503;53.486;10.196;2023-11-19T07:41:48;100377.31;;;10.37;100.00
71666;BME280;59503;53.486;10.196;2023-11-19T07:44:13;100382.81;;;10.41;100.00
71666;BME280;59503;53.486;10.196;2023-11-19T07:46:38;100390.56;;;10.42;100.00
71666;BME280;59503;53.486;10.196;2023-11-19T07:49:04;100383.13;;;10.36;100.00
71666;BME280;59503;53.486;10.196;2023-11-19T07:51:29;100395.22;;;10.42;100.00
71666;BME280;59503;53.486;10.196;2023-11-19T07:53:55;100380.91;;;10.45;100.00
71666;BME280;59503;53.486;10.196;2023-11-19T07:56:20;100384.91;;;10.54;100.00
71666;BME280;59503;53.486;10.196;2023-11-19T07:58:45;100383.03;;;10.58;100.00
71666;BME280;59503;53.486;10.196;2023-11-19T08:01:11;100387.72;;;10.61;100.00
71666;BME280;59503;53.486;10.196;2023-11-19T08:03:37;100387.06;;;10.71;100.00
71666;BME280;59503;53.486;10.196;2023-11-19T08:06:04;100392.16;;;10.76;100.00
71666;BME280;59503;53.486;10.196;2023-11-19T08:08:29;100394.88;;;10.76;100.00
71666;BME280;59503;53.486;10.196;2023-11-19T08:10:56;100393.81;;;10.84;100.00
71666;BME280;59503;53.486;10.196;2023-11-19T08:13:23;100391.09;;;10.84;100.00
71666;BME280;59503;53.486;10.196;2023-11-19T08:15:48;100400.41;;;10.83;100.00
71666;BME280;59503;53.486;10.196;2023-11-19T08:18:13;100400.78;;;10.82;100.00
71666;BME280;59503;53.486;10.196;2023-11-19T08:20:39;100401.13;;;10.77;100.00
71666;BME280;59503;53.486;10.196;2023-11-19T08:23:04;100410.50;;;10.83;100.00
71666;BME280;59503;53.486;10.196;2023-11-19T08:25:30;100415.16;;;10.82;100.00
71666;BME280;59503;53.486;10.196;2023-11-19T08:27:55;100412.06;;;10.84;100.00
71666;BME280;59503;53.486;10.196;2023-11-19T08:30:21;100415.47;;;10.77;100.00
71666;BME280;59503;53.486;10.196;2023-11-19T08:32:46;100418.94;;;10.74;100.00
71666;BME280;59503;53.486;10.196;2023-11-19T08:35:12;100419.03;;;10.81;100.00
71666;BME280;59503;53.486;10.196;2023-11-19T08:37:37;100406.09;;;10.71;100.00
71666;BME280;59503;53.486;10.196;2023-11-19T08:40:04;100422.13;;;10.80;100.00
71666;BME280;59503;53.486;10.196;2023-11-19T08:42:30;100409.75;;;10.86;100.00
71666;BME280;59503;53.486;10.196;2023-11-19T08:44:55;100421.50;;;10.93;100.00
71666;BME280;59503;53.486;10.196;2023-11-19T08:47:21;100423.84;;;10.95;100.00
71666;BME280;59503;53.486;10.196;2023-11-19T08:49:50;100426.28;;;11.03;100.00
71666;BME280;59503;53.486;10.196;2023-11-19T08:52:17;100429.00;;;11.03;100.00
71666;BME280;59503;53.486;10.196;2023-11-19T08:54:43;100422.44;;;11.08;100.00
71666;BME280;59503;53.486;10.196;2023-11-19T08:57:08;100418.88;;;11.04;100.00
71666;BME280;59503;53.486;10.196;2023-11-19T08:59:35;100424.31;;;11.04;100.00
71666;BME280;59503;53.486;10.196;2023-11-19T09:02:00;100423.19;;;11.05;100.00
71666;BME280;59503;53.486;10.196;2023-11-19T09:04:26;100429.38;;;11.02;100.00
71666;BME280;59503;53.486;10.196;2023-11-19T09:06:51;100440.75;;;11.14;100.00
71666;BME280;59503;53.486;10.196;2023-11-19T09:09:16;100441.13;;;11.13;100.00
71666;BME280;59503;53.486;10.196;2023-11-19T09:11:42;100440.06;;;11.21;100.00
71666;BME280;59503;53.486;10.196;2023-11-19T09:14:07;100445.91;;;11.23;100.00
71666;BME280;59503;53.486;10.196;2023-11-19T09:16:33;100437.03;;;11.29;100.00
71666;BME280;59503;53.486;10.196;2023-11-19T09:18:59;100451.47;;;11.34;100.00
71666;BME280;59503;53.486;10.196;2023-11-19T09:21:26;100451.06;;;11.32;100.00
71666;BME280;59503;53.486;10.196;2023-11-19T09:23:51;100453.84;;;11.39;100.00
71666;BME280;59503;53.486;10.196;2023-11-19T09:26:19;100445.31;;;11.40;100.00
71666;BME280;59503;53.486;10.196;2023-11-19T09:28:45;100446.09;;;11.41;100.00
71666;BME280;59503;53.486;10.196;2023-11-19T09:31:17;100445.34;;;11.44;100.00
71666;BME280;59503;53.486;10.196;2023-11-19T09:33:44;100453.09;;;11.42;100.00
71666;BME280;59503;53.486;10.196;2023-11-19T09:36:12;100438.31;;;11.43;100.00
71666;BME280;59503;53.486;10.196;2023-11-19T09:38:42;100447.66;;;11.42;100.00
71666;BME280;59503;53.486;10.196;2023-11-19T09:41:10;100444.25;;;11.52;100.00
71666;BME280;59503;53.486;10.196;2023-11-19T09:43:39;100446.22;;;11.55;100.00
71666;BME280;59503;53.486;10.196;2023-11-19T09:46:09;100452.88;;;11.57;100.00
71666;BME280;59503;53.486;10.196;2023-11-19T09:48:38;100443.91;;;11.57;100.00
71666;BME280;59503;53.486;10.196;2023-11-19T09:51:10;100452.50;;;11.59;100.00
71666;BME280;59503;53.486;10.196;2023-11-19T09:53:37;100455.22;;;11.59;100.00
71666;BME280;59503;53.486;10.196;2023-11-19T09:56:04;100447.72;;;11.49;100.00
71666;BME280;59503;53.486;10.196;2023-11-19T09:58:31;100452.22;;;11.34;100.00
71666;BME280;59503;53.486;10.196;2023-11-19T10:00:57;100446.81;;;11.38;100.00
71666;BME280;59503;53.486;10.196;2023-11-19T10:03:32;100447.25;;;11.40;100.00
71666;BME280;59503;53.486;10.196;2023-11-19T10:05:59;100451.13;;;11.39;100.00
71666;BME280;59503;53.486;10.196;2023-11-19T10:08:26;100445.34;;;11.44;100.00
71666;BME280;59503;53.486;10.196;2023-11-19T10:10:51;100441.47;;;11.45;100.00
71666;BME280;59503;53.486;10.196;2023-11-19T10:13:17;100438.38;;;11.46;100.00
71666;BME280;59503;53.486;10.196;2023-11-19T10:15:43;100444.59;;;11.47;100.00
71666;BME280;59503;53.486;10.196;2023-11-19T10:18:09;100441.84;;;11.43;100.00
71666;BME280;59503;53.486;10.196;2023-11-19T10:20:37;100441.47;;;11.45;100.00
71666;BME280;59503;53.486;10.196;2023-11-19T10:23:05;100430.91;;;11.40;100.00
71666;BME280;59503;53.486;10.196;2023-11-19T10:25:32;100443.00;;;11.42;100.00
71666;BME280;59503;53.486;10.196;2023-11-19T10:27:59;100446.53;;;11.46;100.00
71666;BME280;59503;53.486;10.196;2023-11-19T10:30:30;100440.28;;;11.42;100.00
71666;BME280;59503;53.486;10.196;2023-11-19T10:33:08;100445.31;;;11.40;100.00
71666;BME280;59503;53.486;10.196;2023-11-19T10:35:50;100438.66;;;11.38;100.00
71666;BME280;59503;53.486;10.196;2023-11-19T10:38:18;100445.31;;;11.40;100.00
71666;BME280;59503;53.486;10.196;2023-11-19T10:40:43;100440.66;;;11.41;100.00
71666;BME280;59503;53.486;10.196;2023-11-19T10:43:09;100447.97;;;11.33;100.00
71666;BME280;59503;53.486;10.196;2023-11-19T10:45:36;100454.50;;;11.25;100.00
71666;BME280;59503;53.486;10.196;2023-11-19T10:48:03;100456.78;;;11.23;100.00
71666;BME280;59503;53.486;10.196;2023-11-19T10:50:36;100450.97;;;11.24;100.00
71666;BME280;59503;53.486;10.196;2023-11-19T10:53:03;100442.84;;;11.28;100.00
71666;BME280;59503;53.486;10.196;2023-11-19T10:55:33;100455.28;;;11.29;100.00
71666;BME280;59503;53.486;10.196;2023-11-19T10:58:09;100442.91;;;11.32;100.00
71666;BME280;59503;53.486;10.196;2023-11-19T11:03:16;100443.59;;;11.25;100.00
71666;BME280;59503;53.486;10.196;2023-11-19T11:05:43;100441.22;;;11.20;100.00
71666;BME280;59503;53.486;10.196;2023-11-19T11:08:09;100441.97;;;11.17;100.00
71666;BME280;59503;53.486;10.196;2023-11-19T11:10:42;100462.13;;;11.12;100.00
71666;BME280;59503;53.486;10.196;2023-11-19T11:13:08;100449.19;;;11.02;100.00
71666;BME280;59503;53.486;10.196;2023-11-19T11:15:34;100452.81;;;11.13;100.00
71666;BME280;59503;53.486;10.196;2023-11-19T11:18:01;100458.97;;;11.07;100.00
71666;BME280;59503;53.486;10.196;2023-11-19T11:20:31;100464.03;;;11.08;100.00
71666;BME280;59503;53.486;10.196;2023-11-19T11:26:00;100467.13;;;11.07;100.00
71666;BME280;59503;53.486;10.196;2023-11-19T11:31:49;100470.13;;;10.98;100.00
71666;BME280;59503;53.486;10.196;2023-11-19T11:34:30;100463.38;;;10.89;100.00
71666;BME280;59503;53.486;10.196;2023-11-19T11:37:16;100461.03;;;10.87;100.00
71666;BME280;59503;53.486;10.196;2023-11-19T11:39:45;100472.84;;;10.98;100.00
71666;BME280;59503;53.486;10.196;2023-11-19T11:45:10;100478.56;;;11.23;100.00
71666;BME280;59503;53.486;10.196;2023-11-19T11:55:26;100471.78;;;11.43;100.00
71666;BME280;59503;53.486;10.196;2023-11-19T11:57:53;100462.44;;;11.44;100.00
71666;BME280;59503;53.486;10.196;2023-11-19T12:00:33;100474.13;;;11.45;100.00
71666;BME280;59503;53.486;10.196;2023-11-19T12:03:04;100458.63;;;11.49;100.00
71666;BME280;59503;53.486;10.196;2023-11-19T12:05:30;100458.34;;;11.61;100.00
71666;BME280;59503;53.486;10.196;2023-11-19T12:08:01;100454.91;;;11.64;100.00
71666;BME280;59503;53.486;10.196;2023-11-19T12:13:10;100461.44;;;11.63;100.00
71666;BME280;59503;53.486;10.196;2023-11-19T12:21:31;100451.50;;;11.37;100.00
71666;BME280;59503;53.486;10.196;2023-11-19T12:23:59;100448.41;;;11.39;100.00
71666;BME280;59503;53.486;10.196;2023-11-19T12:26:37;100458.91;;;11.40;100.00
71666;BME280;59503;53.486;10.196;2023-11-19T12:29:03;100455.81;;;11.42;100.00
71666;BME280;59503;53.486;10.196;2023-11-19T12:31:32;100449.66;;;11.48;100.00
71666;BME280;59503;53.486;10.196;2023-11-19T12:34:00;100451.28;;;11.56;100.00
71666;BME280;59503;53.486;10.196;2023-11-19T12:36:26;100447.84;;;11.63;100.00
71666;BME280;59503;53.486;10.196;2023-11-19T12:38:51;100444.03;;;11.67;100.00
71666;BME280;59503;53.486;10.196;2023-11-19T12:41:17;100440.56;;;11.70;100.00
71666;BME280;59503;53.486;10.196;2023-11-19T12:43:45;100448.00;;;11.77;100.00
71666;BME280;59503;53.486;10.196;2023-11-19T12:46:21;100451.25;;;11.93;100.00
71666;BME280;59503;53.486;10.196;2023-11-19T12:48:48;100438.88;;;12.02;100.00
71666;BME280;59503;53.486;10.196;2023-11-19T12:51:13;100443.56;;;12.05;100.00
71666;BME280;59503;53.486;10.196;2023-11-19T12:53:50;100446.41;;;12.19;100.00
71666;BME280;59503;53.486;10.196;2023-11-19T12:56:17;100445.19;;;12.17;100.00
71666;BME280;59503;53.486;10.196;2023-11-19T12:58:43;100447.16;;;12.20;100.00
71666;BME280;59503;53.486;10.196;2023-11-19T13:01:09;100438.13;;;12.09;100.00
71666;BME280;59503;53.486;10.196;2023-11-19T13:03:37;100433.75;;;11.94;100.00